Time,TemperatureF,DewpointF,PressureIn,WindDirection,WindDirectionDegrees,WindSpeedMPH,WindSpeedGustMPH,Humidity,HourlyPrecipIn,Conditions,Clouds,dailyrainin,SoftwareType,DateUTC
2013-02-13 00:12:00,28.3,26.0,29.89,West,265,1.0,3.0,89,0.00,,,0.00,weatherlink.com 1.10,2013-02-13 06:12:00,
2013-02-13 00:27:00,28.1,26.0,29.89,West,265,2.0,3.0,90,0.00,,,0.00,weatherlink.com 1.10,2013-02-13 06:27:00,
2013-02-13 00:49:00,27.8,25.0,29.89,WNW,298,1.0,3.0,90,0.00,,,0.00,weatherlink.com 1.10,2013-02-13 06:49:00,
2013-02-13 01:00:00,27.6,25.0,29.89,West,266,1.0,3.0,90,0.00,,,0.00,weatherlink.com 1.10,2013-02-13 07:00:00,
2013-02-13 01:12:00,27.5,25.0,29.88,West,267,1.0,3.0,90,0.00,,,0.00,weatherlink.com 1.10,2013-02-13 07:12:00,
2013-02-13 01:28:00,27.3,25.0,29.87,West,261,1.0,3.0,90,0.00,,,0.00,weatherlink.com 1.10,2013-02-13 07:28:00,
2013-02-13 01:42:00,27.1,25.0,29.87,West,260,1.0,3.0,90,0.00,,,0.00,weatherlink.com 1.10,2013-02-13 07:42:00,
2013-02-13 01:58:00,26.9,24.0,29.87,West,261,2.0,3.0,90,0.00,,,0.00,weatherlink.com 1.10,2013-02-13 07:58:00,
2013-02-13 02:13:00,26.7,24.0,29.87,WSW,242,1.0,4.0,90,0.00,,,0.00,weatherlink.com 1.10,2013-02-13 08:13:00,
2013-02-13 02:28:00,26.5,24.0,29.86,West,259,1.0,3.0,90,0.00,,,0.00,weatherlink.com 1.10,2013-02-13 08:28:00,
2013-02-13 02:43:00,26.2,24.0,29.86,West,259,1.0,3.0,90,0.00,,,0.00,weatherlink.com 1.10,2013-02-13 08:43:00,
2013-02-13 02:58:00,26.1,24.0,29.85,WSW,246,1.0,4.0,90,0.00,,,0.00,weatherlink.com 1.10,2013-02-13 08:58:00,
2013-02-13 03:13:00,25.8,23.0,29.85,WSW,246,2.0,3.0,90,0.00,,,0.00,weatherlink.com 1.10,2013-02-13 09:13:00,
2013-02-13 03:28:00,25.7,24.0,29.85,WSW,238,1.0,3.0,91,0.00,,,0.00,weatherlink.com 1.10,2013-02-13 09:28:00,
2013-02-13 03:43:00,25.5,23.0,29.85,WSW,238,1.0,2.0,91,0.00,,,0.00,weatherlink.com 1.10,2013-02-13 09:43:00,
2013-02-13 03:58:00,25.4,23.0,29.85,West,275,3.0,5.0,91,0.00,,,0.00,weatherlink.com 1.10,2013-02-13 09:58:00,
2013-02-13 04:13:00,25.6,23.0,29.84,SW,230,3.0,7.0,91,0.00,,,0.00,weatherlink.com 1.10,2013-02-13 10:13:00,
2013-02-13 04:28:00,25.4,23.0,29.84,West,276,2.0,4.0,91,0.00,,,0.00,weatherlink.com 1.10,2013-02-13 10:28:00,
2013-02-13 04:43:00,25.1,23.0,29.84,WSW,246,2.0,4.0,91,0.00,,,0.00,weatherlink.com 1.10,2013-02-13 10:43:00,
2013-02-13 04:58:00,24.9,23.0,29.84,WSW,254,0.0,3.0,91,0.00,,,0.00,weatherlink.com 1.10,2013-02-13 10:58:00,
2013-02-13 05:13:00,24.7,23.0,29.84,WSW,254,2.0,2.0,91,0.00,,,0.00,weatherlink.com 1.10,2013-02-13 11:13:00,
2013-02-13 05:28:00,24.5,22.0,29.84,WSW,242,1.0,4.0,91,0.00,,,0.00,weatherlink.com 1.10,2013-02-13 11:28:00,
2013-02-13 05:43:00,24.5,22.0,29.83,SW,234,2.0,3.0,91,0.00,,,0.00,weatherlink.com 1.10,2013-02-13 11:43:00,
2013-02-13 05:58:00,24.4,22.0,29.83,SSW,204,2.0,4.0,91,0.00,,,0.00,weatherlink.com 1.10,2013-02-13 11:58:00,
2013-02-13 06:13:00,24.4,22.0,29.82,SSW,194,1.0,2.0,92,0.00,,,0.00,weatherlink.com 1.10,2013-02-13 12:13:00,
2013-02-13 06:28:00,24.4,22.0,29.82,SW,224,1.0,3.0,91,0.00,,,0.00,weatherlink.com 1.10,2013-02-13 12:28:00,
2013-02-13 06:43:00,24.5,23.0,29.82,WSW,253,2.0,4.0,92,0.00,,,0.00,weatherlink.com 1.10,2013-02-13 12:43:00,
2013-02-13 06:58:00,24.7,23.0,29.82,SW,231,0.0,3.0,92,0.00,,,0.00,weatherlink.com 1.10,2013-02-13 12:58:00,
2013-02-13 07:13:00,24.7,23.0,29.82,SW,235,1.0,3.0,92,0.00,,,0.00,weatherlink.com 1.10,2013-02-13 13:13:00,
2013-02-13 07:28:00,25.1,23.0,29.82,SW,236,2.0,5.0,92,0.00,,,0.00,weatherlink.com 1.10,2013-02-13 13:28:00,
2013-02-13 07:43:00,25.4,23.0,29.83,West,261,2.0,5.0,91,0.00,,,0.00,weatherlink.com 1.10,2013-02-13 13:43:00,
2013-02-13 07:58:00,26.1,24.0,29.83,WSW,240,1.0,6.0,91,0.00,,,0.00,weatherlink.com 1.10,2013-02-13 13:58:00,
2013-02-13 08:13:00,26.5,24.0,29.83,SW,222,0.0,5.0,90,0.00,,,0.00,weatherlink.com 1.10,2013-02-13 14:13:00,
2013-02-13 08:29:00,26.9,24.0,29.82,SW,234,1.0,3.0,90,0.00,,,0.00,weatherlink.com 1.10,2013-02-13 14:29:00,
2013-02-13 08:43:00,27.5,25.0,29.82,WSW,248,3.0,5.0,90,0.00,,,0.00,weatherlink.com 1.10,2013-02-13 14:43:00,
2013-02-13 08:59:00,27.9,25.0,29.82,SSW,200,3.0,7.0,89,0.00,,,0.00,weatherlink.com 1.10,2013-02-13 14:59:00,
2013-02-13 09:13:00,28.4,26.0,29.81,SW,221,0.0,6.0,89,0.00,,,0.00,weatherlink.com 1.10,2013-02-13 15:13:00,
2013-02-13 09:29:00,28.9,26.0,29.81,SSW,205,6.0,8.0,89,0.00,,,0.00,weatherlink.com 1.10,2013-02-13 15:29:00,
2013-02-13 09:44:00,30.6,28.0,29.81,WSW,254,4.0,8.0,88,0.00,,,0.00,weatherlink.com 1.10,2013-02-13 15:44:00,
2013-02-13 09:59:00,31.5,28.0,29.80,West,269,2.0,9.0,85,0.00,,,0.00,weatherlink.com 1.10,2013-02-13 15:59:00,
2013-02-13 10:13:00,32.4,28.0,29.80,West,263,11.0,13.0,84,0.00,,,0.00,weatherlink.com 1.10,2013-02-13 16:13:00,
2013-02-13 10:28:00,33.7,30.0,29.81,SSW,210,3.0,9.0,85,0.00,,,0.00,weatherlink.com 1.10,2013-02-13 16:28:00,
2013-02-13 10:59:00,34.6,30.0,29.80,SW,234,8.0,13.0,83,0.00,,,0.00,weatherlink.com 1.10,2013-02-13 16:59:00,
2013-02-13 11:14:00,35.3,30.0,29.79,WSW,247,7.0,11.0,82,0.00,,,0.00,weatherlink.com 1.10,2013-02-13 17:14:00,
2013-02-13 11:29:00,36.9,31.0,29.79,SSW,203,3.0,11.0,80,0.00,,,0.00,weatherlink.com 1.10,2013-02-13 17:29:00,
2013-02-13 11:44:00,38.2,32.0,29.79,WSW,247,5.0,8.0,77,0.00,,,0.00,weatherlink.com 1.10,2013-02-13 17:44:00,
2013-02-13 11:59:00,39.7,33.0,29.78,WNW,294,3.0,8.0,76,0.00,,,0.00,weatherlink.com 1.10,2013-02-13 17:59:00,
2013-02-13 12:14:00,40.2,33.0,29.77,SW,231,7.0,9.0,76,0.00,,,0.00,weatherlink.com 1.10,2013-02-13 18:14:00,
2013-02-13 12:29:00,40.6,33.0,29.77,West,259,2.0,11.0,75,0.00,,,0.00,weatherlink.com 1.10,2013-02-13 18:29:00,
2013-02-13 12:44:00,41.3,34.0,29.76,SSW,198,4.0,14.0,75,0.00,,,0.00,weatherlink.com 1.10,2013-02-13 18:44:00,
2013-02-13 12:59:00,42.6,33.0,29.75,SSW,207,4.0,11.0,70,0.00,,,0.00,weatherlink.com 1.10,2013-02-13 18:59:00,
2013-02-13 13:14:00,43.0,34.0,29.75,SSW,202,8.0,14.0,70,0.00,,,0.00,weatherlink.com 1.10,2013-02-13 19:14:00,
2013-02-13 13:29:00,43.3,35.0,29.74,SSW,207,7.0,12.0,72,0.00,,,0.00,weatherlink.com 1.10,2013-02-13 19:29:00,
2013-02-13 13:44:00,43.8,35.0,29.74,WSW,252,5.0,15.0,72,0.00,,,0.00,weatherlink.com 1.10,2013-02-13 19:44:00,
2013-02-13 13:59:00,44.2,35.0,29.73,SSW,202,6.0,13.0,70,0.00,,,0.00,weatherlink.com 1.10,2013-02-13 19:59:00,
2013-02-13 14:14:00,44.5,35.0,29.72,WSW,252,6.0,13.0,69,0.00,,,0.00,weatherlink.com 1.10,2013-02-13 20:14:00,
2013-02-13 14:29:00,45.0,36.0,29.71,WSW,238,4.0,12.0,71,0.00,,,0.00,weatherlink.com 1.10,2013-02-13 20:29:00,
2013-02-13 14:45:00,45.5,35.0,29.71,SSE,167,2.0,14.0,66,0.00,,,0.00,weatherlink.com 1.10,2013-02-13 20:45:00,
2013-02-13 15:00:00,45.8,35.0,29.70,WSW,249,11.0,12.0,66,0.00,,,0.00,weatherlink.com 1.10,2013-02-13 21:00:00,
2013-02-13 15:14:00,46.5,36.0,29.70,WSW,244,9.0,15.0,66,0.00,,,0.00,weatherlink.com 1.10,2013-02-13 21:14:00,
2013-02-13 15:29:00,45.8,35.0,29.70,West,261,7.0,14.0,67,0.00,,,0.00,weatherlink.com 1.10,2013-02-13 21:29:00,
2013-02-13 15:44:00,45.4,36.0,29.70,SW,218,4.0,12.0,70,0.00,,,0.00,weatherlink.com 1.10,2013-02-13 21:44:00,
2013-02-13 15:59:00,45.0,36.0,29.70,SW,224,3.0,10.0,72,0.00,,,0.00,weatherlink.com 1.10,2013-02-13 21:59:00,
2013-02-13 16:14:00,44.7,36.0,29.69,SSW,200,3.0,7.0,71,0.00,,,0.00,weatherlink.com 1.10,2013-02-13 22:14:00,
2013-02-13 16:29:00,44.3,36.0,29.69,SSW,200,3.0,8.0,72,0.00,,,0.00,weatherlink.com 1.10,2013-02-13 22:29:00,
2013-02-13 16:45:00,44.2,36.0,29.68,West,260,3.0,7.0,73,0.00,,,0.00,weatherlink.com 1.10,2013-02-13 22:45:00,
2013-02-13 17:00:00,44.0,36.0,29.68,SW,218,2.0,8.0,73,0.00,,,0.00,weatherlink.com 1.10,2013-02-13 23:00:00,
2013-02-13 17:15:00,43.6,35.0,29.67,SSW,210,6.0,6.0,72,0.00,,,0.00,weatherlink.com 1.10,2013-02-13 23:15:00,
2013-02-13 17:30:00,43.4,35.0,29.67,South,178,3.0,5.0,73,0.00,,,0.00,weatherlink.com 1.10,2013-02-13 23:30:00,
2013-02-13 17:45:00,43.1,35.0,29.67,SSW,196,2.0,5.0,73,0.00,,,0.00,weatherlink.com 1.10,2013-02-13 23:45:00,
2013-02-13 18:00:00,42.7,35.0,29.67,SE,134,2.0,7.0,74,0.00,,,0.00,weatherlink.com 1.10,2013-02-14 00:00:00,
2013-02-13 18:15:00,42.4,35.0,29.67,WSW,241,1.0,8.0,75,0.00,,,0.00,weatherlink.com 1.10,2013-02-14 00:15:00,
2013-02-13 18:30:00,42.5,35.0,29.67,SSW,211,3.0,9.0,74,0.00,,,0.00,weatherlink.com 1.10,2013-02-14 00:30:00,
2013-02-13 18:45:00,42.9,35.0,29.67,West,276,4.0,12.0,73,0.00,,,0.00,weatherlink.com 1.10,2013-02-14 00:45:00,
2013-02-13 19:00:00,42.5,34.0,29.66,WSW,256,6.0,7.0,73,0.00,,,0.00,weatherlink.com 1.10,2013-02-14 01:00:00,
2013-02-13 19:15:00,42.0,34.0,29.66,WSW,246,4.0,7.0,73,0.00,,,0.00,weatherlink.com 1.10,2013-02-14 01:15:00,
2013-02-13 19:30:00,42.0,34.0,29.65,WSW,247,3.0,10.0,73,0.00,,,0.00,weatherlink.com 1.10,2013-02-14 01:30:00,
2013-02-13 19:45:00,41.7,34.0,29.65,WSW,243,6.0,11.0,73,0.00,,,0.00,weatherlink.com 1.10,2013-02-14 01:45:00,
2013-02-13 20:00:00,41.3,34.0,29.65,WSW,251,7.0,10.0,74,0.00,,,0.00,weatherlink.com 1.10,2013-02-14 02:00:00,
2013-02-13 20:15:00,40.5,34.0,29.65,WSW,240,7.0,13.0,76,0.00,,,0.00,weatherlink.com 1.10,2013-02-14 02:15:00,
2013-02-13 20:30:00,39.7,33.0,29.65,WSW,241,11.0,12.0,78,0.00,,,0.00,weatherlink.com 1.10,2013-02-14 02:30:00,
2013-02-13 20:45:00,39.2,33.0,29.65,WSW,250,4.0,11.0,79,0.00,,,0.00,weatherlink.com 1.10,2013-02-14 02:45:00,
2013-02-13 21:00:00,38.7,33.0,29.64,WSW,247,6.0,10.0,79,0.00,,,0.00,weatherlink.com 1.10,2013-02-14 03:00:00,
2013-02-13 21:15:00,38.1,32.0,29.65,WSW,238,3.0,10.0,79,0.00,,,0.00,weatherlink.com 1.10,2013-02-14 03:15:00,
2013-02-13 21:30:00,37.7,32.0,29.65,West,267,4.0,12.0,80,0.00,,,0.00,weatherlink.com 1.10,2013-02-14 03:30:00,
2013-02-13 21:45:00,37.6,32.0,29.65,WSW,257,7.0,12.0,81,0.00,,,0.00,weatherlink.com 1.10,2013-02-14 03:45:00,
2013-02-13 22:15:00,37.0,32.0,29.66,West,268,5.0,12.0,83,0.00,,,0.00,weatherlink.com 1.10,2013-02-14 04:15:00,
2013-02-13 22:44:00,36.2,32.0,29.66,WNW,290,4.0,11.0,85,0.00,,,0.00,weatherlink.com 1.10,2013-02-14 04:44:00,
2013-02-13 22:59:00,36.1,32.0,29.66,WNW,284,7.0,10.0,86,0.00,,,0.00,weatherlink.com 1.10,2013-02-14 04:59:00,
2013-02-13 23:14:00,36.2,32.0,29.66,West,276,8.0,10.0,86,0.00,,,0.00,weatherlink.com 1.10,2013-02-14 05:14:00,
2013-02-13 23:29:00,36.2,32.0,29.66,WSW,257,5.0,10.0,86,0.00,,,0.00,weatherlink.com 1.10,2013-02-14 05:29:00,
2013-02-13 23:44:00,36.4,32.0,29.67,West,259,6.0,13.0,85,0.00,,,0.00,weatherlink.com 1.10,2013-02-14 05:44:00,
2013-02-13 23:59:00,36.9,32.0,29.67,NW,317,10.0,13.0,83,0.00,,,0.00,weatherlink.com 1.10,2013-02-14 05:59:00,